createdAt,value
2023-04-01T00:02:06.845Z,100.00
2023-04-01T00:05:52.792Z,100.00
2023-04-01T00:09:11.269Z,100.00
2023-04-01T00:12:42.806Z,100.00
2023-04-01T00:16:00.519Z,100.00
2023-04-01T00:19:30.650Z,100.00
2023-04-01T00:22:56.275Z,100.00
2023-04-01T00:26:23.594Z,100.00
2023-04-01T00:29:48.703Z,100.00
2023-04-01T00:33:18.063Z,100.00
2023-04-01T00:36:33.459Z,100.00
2023-04-01T00:40:39.137Z,100.00
2023-04-01T00:44:23.990Z,100.00
2023-04-01T00:47:49.003Z,100.00
2023-04-01T00:51:25.720Z,100.00
2023-04-01T00:54:58.238Z,100.00
2023-04-01T00:58:18.638Z,100.00
2023-04-01T01:01:45.812Z,100.00
2023-04-01T01:05:16.874Z,100.00
2023-04-01T01:08:59.580Z,100.00
2023-04-01T01:12:59.315Z,100.00
2023-04-01T01:16:33.193Z,100.00
2023-04-01T01:20:31.558Z,100.00
2023-04-01T01:23:49.546Z,100.00
2023-04-01T01:27:24.499Z,100.00
2023-04-01T01:30:51.529Z,100.00
2023-04-01T01:34:40.609Z,100.00
2023-04-01T01:38:12.742Z,100.00
2023-04-01T01:41:50.448Z,100.00
2023-04-01T01:45:33.438Z,100.00
2023-04-01T01:48:49.885Z,100.00
2023-04-01T01:52:41.351Z,100.00
2023-04-01T01:56:19.370Z,100.00
2023-04-01T01:59:43.962Z,100.00
2023-04-01T02:03:12.232Z,100.00
2023-04-01T02:06:39.700Z,100.00
2023-04-01T02:10:14.402Z,100.00
2023-04-01T02:14:21.746Z,100.00
2023-04-01T02:17:50.842Z,100.00
2023-04-01T02:21:29.093Z,100.00
2023-04-01T02:25:14.571Z,100.00
2023-04-01T02:28:34.309Z,100.00
2023-04-01T02:32:10.529Z,100.00
2023-04-01T02:35:40.430Z,100.00
2023-04-01T02:39:08.919Z,100.00
2023-04-01T02:42:23.718Z,100.00
2023-04-01T02:46:00.863Z,100.00
2023-04-01T02:49:35.199Z,100.00
2023-04-01T02:53:09.462Z,100.00
2023-04-01T02:56:35.998Z,100.00
2023-04-01T02:59:57.440Z,100.00
2023-04-01T03:03:32.152Z,100.00
2023-04-01T03:07:05.104Z,100.00
2023-04-01T03:10:19.749Z,100.00
2023-04-01T03:13:47.528Z,100.00
2023-04-01T03:17:21.415Z,100.00
2023-04-01T03:20:53.842Z,100.00
2023-04-01T03:24:09.911Z,100.00
2023-04-01T03:31:12.927Z,100.00
2023-04-01T03:34:40.920Z,100.00
2023-04-01T03:38:07.407Z,100.00
2023-04-01T03:41:42.417Z,100.00
2023-04-01T03:45:16.584Z,100.00
2023-04-01T03:48:51.231Z,100.00
2023-04-01T03:52:31.344Z,100.00
2023-04-01T03:55:45.694Z,100.00
2023-04-01T03:59:09.745Z,100.00
2023-04-01T04:02:36.893Z,100.00
2023-04-01T04:06:04.474Z,100.00
2023-04-01T04:09:38.296Z,100.00
2023-04-01T04:13:12.259Z,100.00
2023-04-01T04:16:41.963Z,100.00
2023-04-01T04:20:16.574Z,100.00
2023-04-01T04:23:44.060Z,100.00
2023-04-01T04:27:18.656Z,100.00
2023-04-01T04:30:50.960Z,100.00
2023-04-01T04:34:20.575Z,100.00
2023-04-01T04:37:47.154Z,100.00
2023-04-01T04:41:16.648Z,100.00
2023-04-01T04:44:47.050Z,100.00
2023-04-01T04:48:22.758Z,100.00
2023-04-01T04:51:47.279Z,100.00
2023-04-01T04:55:28.416Z,100.00
2023-04-01T04:58:57.068Z,100.00
2023-04-01T05:02:30.227Z,100.00
2023-04-01T05:05:54.985Z,100.00
2023-04-01T05:09:27.921Z,100.00
2023-04-01T05:12:54.814Z,100.00
2023-04-01T05:16:22.058Z,100.00
2023-04-01T05:19:59.284Z,100.00
2023-04-01T05:23:17.316Z,100.00
2023-04-01T05:26:43.817Z,100.00
2023-04-01T05:30:00.455Z,100.00
2023-04-01T05:33:26.823Z,100.00
2023-04-01T05:36:57.307Z,100.00
2023-04-01T05:40:23.755Z,100.00
2023-04-01T05:43:51.677Z,100.00
2023-04-01T05:47:19.499Z,100.00
2023-04-01T06:32:40.388Z,96.95
2023-04-01T06:36:40.519Z,95.01
2023-04-01T06:40:28.843Z,93.42
2023-04-01T06:44:02.851Z,92.62
2023-04-01T06:48:21.531Z,92.63
2023-04-01T07:04:54.251Z,86.71
2023-04-01T07:28:03.882Z,81.89
2023-04-01T08:19:37.406Z,66.60
2023-04-01T08:23:51.064Z,68.83
2023-04-01T08:46:17.810Z,67.80
2023-04-01T09:01:24.744Z,63.15
2023-04-01T09:04:48.435Z,65.32
2023-04-01T09:08:40.428Z,66.05
2023-04-01T09:12:47.190Z,66.35
2023-04-01T09:16:43.376Z,65.67
2023-04-01T09:20:20.490Z,67.39
2023-04-01T09:23:55.900Z,66.77
2023-04-01T09:28:09.660Z,66.18
2023-04-01T09:31:57.885Z,62.92
2023-04-01T09:35:40.092Z,63.76
2023-04-01T09:39:30.930Z,64.92
2023-04-01T09:43:08.166Z,66.99
2023-04-01T09:47:04.511Z,67.09
2023-04-01T09:50:33.750Z,67.06
2023-04-01T09:54:14.887Z,67.30
2023-04-01T09:58:20.754Z,66.58
2023-04-01T10:02:09.609Z,64.01
2023-04-01T10:06:19.301Z,65.51
2023-04-01T10:10:23.951Z,67.54
2023-04-01T10:14:32.062Z,68.23
2023-04-01T10:18:20.027Z,67.60
2023-04-01T10:22:14.994Z,67.91
2023-04-01T10:25:55.788Z,68.91
2023-04-01T10:29:55.487Z,68.36
2023-04-01T10:33:39.587Z,67.10
2023-04-01T10:37:48.495Z,66.76
2023-04-01T10:41:44.746Z,67.66
2023-04-01T10:45:47.074Z,67.30
2023-04-01T10:49:39.834Z,65.99
2023-04-01T10:53:40.661Z,64.43
2023-04-01T10:57:26.480Z,63.72
2023-04-01T11:01:11.647Z,63.42
2023-04-01T11:05:16.062Z,63.60
2023-04-01T11:09:03.254Z,62.74
2023-04-01T11:12:42.248Z,63.60
2023-04-01T11:16:42.721Z,62.59
2023-04-01T11:20:51.681Z,60.28
2023-04-01T11:24:23.526Z,61.42
2023-04-01T11:28:37.454Z,61.43
2023-04-01T11:32:32.683Z,61.80
2023-04-01T11:36:13.330Z,60.52
2023-04-01T11:39:49.327Z,60.79
2023-04-01T11:43:46.558Z,58.93
2023-04-01T11:47:18.936Z,58.17
2023-04-01T11:51:17.571Z,58.19
2023-04-01T11:55:07.424Z,58.89
2023-04-01T11:58:56.232Z,60.45
2023-04-01T12:02:22.601Z,60.15
2023-04-01T12:05:46.705Z,61.89
2023-04-01T12:09:22.047Z,60.22
2023-04-01T12:13:08.706Z,61.13
2023-04-01T12:16:43.228Z,60.49
2023-04-01T12:20:14.146Z,60.07
2023-04-01T12:23:48.717Z,59.92
2023-04-01T12:27:41.572Z,57.52
2023-04-01T12:31:35.891Z,55.27
2023-04-01T12:35:24.600Z,54.82
2023-04-01T12:38:42.405Z,53.95
2023-04-01T12:42:41.792Z,53.27
2023-04-01T12:46:18.627Z,54.70
2023-04-01T12:50:15.779Z,53.85
2023-04-01T12:54:05.494Z,54.05
2023-04-01T12:57:40.326Z,52.13
2023-04-01T13:01:26.965Z,52.67
2023-04-01T13:04:42.525Z,53.58
2023-04-01T13:08:32.218Z,53.40
2023-04-01T13:11:49.345Z,52.89
2023-04-01T13:15:48.536Z,53.09
2023-04-01T13:19:32.346Z,52.15
2023-04-01T13:23:33.573Z,53.79
2023-04-01T13:27:27.228Z,54.34
2023-04-01T13:31:17.581Z,53.66
2023-04-01T13:34:55.909Z,52.60
2023-04-01T13:38:43.113Z,51.74
2023-04-01T13:42:10.553Z,51.58
2023-04-01T13:45:56.998Z,54.95
2023-04-01T13:49:43.221Z,53.57
2023-04-01T13:53:18.424Z,53.67
2023-04-01T13:57:26.623Z,53.12
2023-04-01T14:00:47.413Z,54.44
2023-04-01T14:04:23.728Z,53.78
2023-04-01T14:07:59.429Z,55.40
2023-04-01T14:12:06.744Z,55.76
2023-04-01T14:16:00.959Z,57.02
2023-04-01T14:19:49.530Z,59.51
2023-04-01T14:23:27.642Z,61.47
2023-04-01T14:27:04.296Z,62.55
2023-04-01T14:30:37.584Z,63.73
2023-04-01T14:33:58.491Z,62.34
2023-04-01T14:37:40.339Z,63.03
2023-04-01T14:41:33.485Z,61.11
2023-04-01T14:45:28.264Z,60.75
2023-04-01T14:48:54.648Z,61.13
2023-04-01T14:52:35.591Z,62.10
2023-04-01T14:56:38.451Z,61.02
2023-04-01T15:00:14.656Z,61.86
2023-04-01T15:03:21.385Z,60.26
2023-04-01T15:06:54.566Z,59.91
2023-04-01T15:10:43.109Z,59.34
2023-04-01T15:14:02.382Z,59.42
2023-04-01T15:17:44.866Z,58.27
2023-04-01T15:22:05.783Z,57.38
2023-04-01T15:26:09.784Z,56.10
2023-04-01T15:29:32.488Z,54.74
2023-04-01T15:33:16.049Z,53.77
2023-04-01T15:37:13.098Z,55.41
2023-04-01T15:40:44.263Z,53.63
2023-04-01T15:43:50.042Z,54.87
2023-04-01T15:47:28.043Z,55.11
2023-04-01T15:50:56.128Z,55.88
2023-04-01T15:54:26.664Z,55.55
2023-04-01T15:58:25.515Z,55.07
2023-04-01T16:02:00.123Z,51.31
2023-04-01T16:05:51.146Z,52.57
2023-04-01T16:09:08.985Z,50.71
2023-04-01T16:12:41.172Z,51.43
2023-04-01T16:16:18.912Z,51.41
2023-04-01T16:19:41.575Z,52.42
2023-04-01T16:23:01.189Z,52.01
2023-04-01T16:26:24.886Z,51.36
2023-04-01T16:30:00.203Z,52.60
2023-04-01T16:33:44.581Z,52.63
2023-04-01T16:36:59.126Z,52.96
2023-04-01T16:40:47.738Z,53.53
2023-04-01T16:44:22.000Z,53.99
2023-04-01T16:47:48.812Z,54.13
2023-04-01T16:51:01.371Z,54.81
2023-04-01T16:54:59.527Z,55.19
2023-04-01T16:58:08.643Z,54.93
2023-04-01T17:01:24.171Z,55.46
2023-04-01T17:05:03.705Z,56.35
2023-04-01T17:08:24.275Z,57.30
2023-04-01T17:11:41.087Z,57.52
2023-04-01T17:15:29.945Z,57.48
2023-04-01T17:19:00.453Z,58.87
2023-04-01T17:22:34.103Z,59.01
2023-04-01T17:25:47.852Z,58.86
2023-04-01T17:29:42.784Z,59.49
2023-04-01T17:33:31.876Z,59.66
2023-04-01T17:37:51.101Z,60.51
2023-04-01T17:41:33.611Z,60.79
2023-04-01T17:45:28.798Z,61.31
2023-04-01T17:49:06.178Z,62.07
2023-04-01T17:52:19.967Z,62.27
2023-04-01T17:56:07.408Z,63.19
2023-04-01T17:59:30.559Z,63.94
2023-04-01T18:02:52.224Z,64.27
2023-04-01T18:06:55.008Z,64.39
2023-04-01T18:11:04.370Z,64.97
2023-04-01T18:14:36.680Z,65.71
2023-04-01T18:18:05.997Z,65.82
2023-04-01T18:21:29.235Z,66.53
2023-04-01T18:25:40.876Z,66.12
2023-04-01T18:29:21.415Z,66.94
2023-04-01T18:33:25.533Z,67.05
2023-04-01T18:37:14.724Z,67.85
2023-04-01T18:41:06.772Z,68.20
2023-04-01T18:44:49.355Z,68.43
2023-04-01T18:48:28.819Z,68.68
2023-04-01T18:52:33.514Z,69.26
2023-04-01T18:56:26.379Z,69.06
2023-04-01T18:59:39.644Z,69.50
2023-04-01T19:03:14.023Z,70.08
2023-04-01T19:07:18.494Z,70.87
2023-04-01T19:10:27.630Z,71.27
2023-04-01T19:14:31.145Z,72.14
2023-04-01T19:17:48.985Z,73.07
2023-04-01T19:21:56.707Z,74.28
2023-04-01T19:25:40.317Z,74.87
2023-04-01T19:29:41.751Z,74.55
2023-04-01T19:33:32.283Z,74.69
2023-04-01T19:37:16.094Z,75.45
2023-04-01T19:40:25.139Z,76.73
2023-04-01T19:44:38.092Z,76.90
2023-04-01T19:48:18.258Z,77.84
2023-04-01T19:51:47.932Z,78.95
2023-04-01T19:55:18.877Z,79.11
2023-04-01T19:58:38.436Z,79.50
2023-04-01T20:02:10.539Z,80.57
2023-04-01T20:05:59.385Z,81.19
2023-04-01T20:09:33.924Z,82.44
2023-04-01T20:13:35.640Z,83.52
2023-04-01T20:17:47.282Z,83.88
2023-04-01T20:21:07.731Z,84.71
2023-04-01T20:24:36.491Z,86.15
2023-04-01T20:28:12.058Z,86.90
2023-04-01T20:31:59.535Z,86.83
2023-04-01T20:35:50.076Z,87.51
2023-04-01T20:39:35.034Z,88.11
2023-04-01T20:42:57.203Z,89.65
2023-04-01T20:46:36.993Z,90.19
2023-04-01T20:50:07.645Z,90.13
2023-04-01T20:53:38.348Z,91.90
2023-04-01T20:57:34.439Z,92.31
2023-04-01T21:01:14.048Z,92.81
2023-04-01T21:04:21.022Z,93.02
2023-04-01T21:08:22.105Z,93.52
2023-04-01T21:11:40.422Z,94.67
2023-04-01T21:15:14.478Z,94.74
2023-04-01T21:19:02.452Z,95.34
2023-04-01T21:23:15.221Z,95.74
2023-04-01T21:27:13.169Z,97.45
2023-04-01T21:30:49.079Z,95.61
2023-04-01T21:34:52.177Z,95.13
2023-04-01T21:38:25.821Z,91.58
2023-04-01T21:42:00.326Z,88.37
2023-04-01T21:45:34.107Z,88.11
2023-04-01T21:49:16.135Z,85.42
2023-04-01T21:53:02.000Z,83.09
2023-04-01T21:56:53.520Z,82.29
2023-04-01T22:00:17.501Z,82.09
2023-04-01T22:04:40.008Z,82.23
2023-04-01T22:08:31.593Z,81.77
2023-04-01T22:12:30.527Z,81.69
2023-04-01T22:16:33.298Z,82.13
2023-04-01T22:20:38.654Z,81.53
2023-04-01T22:24:29.730Z,81.32
2023-04-01T22:28:05.381Z,81.17
2023-04-01T22:31:38.535Z,81.51
2023-04-01T22:35:13.237Z,81.57
2023-04-01T22:39:04.146Z,81.55
2023-04-01T22:42:47.298Z,81.71
2023-04-01T22:46:35.770Z,81.84
2023-04-01T22:50:29.019Z,81.37
2023-04-01T22:53:59.230Z,81.70
2023-04-01T22:57:45.953Z,81.60
2023-04-01T23:01:24.291Z,81.56
2023-04-01T23:05:01.617Z,81.61
2023-04-01T23:08:52.122Z,81.74
2023-04-01T23:12:17.040Z,81.88
2023-04-01T23:15:56.163Z,82.25
2023-04-01T23:19:23.134Z,82.54
2023-04-01T23:22:56.983Z,82.80
2023-04-01T23:26:42.652Z,83.91
2023-04-01T23:30:40.187Z,84.34
2023-04-01T23:34:24.024Z,84.63
2023-04-01T23:37:51.371Z,85.46
2023-04-01T23:41:32.835Z,85.70
2023-04-01T23:44:49.482Z,85.89
2023-04-01T23:48:33.674Z,85.13
2023-04-01T23:51:56.906Z,85.23
2023-04-01T23:55:27.456Z,84.64
2023-04-01T23:59:05.416Z,84.77
